Time;durP1;ratioP1;P1;durP2;ratioP2;P2;SDS_P1;SDS_P2;PMS_P1;PMS_P2;Temp;Humidity;BMP_temperature;BMP_pressure;BME280_temperature;BME280_humidity;BME280_pressure;Samples;Min_cycle;Max_cycle;Signal;HPM_P1;HPM_P2
2022/09/20 04:31:56;;;;;;;;;2.67;2.33;;;;;;;;5275092;23;46545;-58
2022/09/20 04:36:27;;;;;;;;;4.67;4.67;;;;;;;;5011829;28;45472;-56
2022/09/20 04:37:25;;;;;;;;;4.33;3.00;;;;;;;;5014518;28;45308;-58
2022/09/20 04:40:16;;;;;;;;;3.00;3.00;;;;;;;;5007900;28;46644;-57
2022/09/20 04:42:48;;;;;;;;;5.00;4.00;;;;;;;;5002741;28;45628;-56
2022/09/20 04:45:17;;;;;;;;;4.33;4.33;;;;;;;;5015904;28;45735;-55
2022/09/20 04:47:48;;;;;;;;;5.33;4.00;;;;;;;;5022160;28;45602;-57
2022/09/20 04:50:25;;;;;;;;;4.00;4.00;;;;;;;;5016981;28;45505;-57
2022/09/20 04:52:57;;;;;;;;;5.33;5.00;;;;;;;;5012786;28;45324;-57
2022/09/20 04:55:25;;;;;;;;;2.00;2.00;;;;;;;;5014907;28;45498;-54
2022/09/20 04:58:09;;;;;;;;;4.00;3.00;;;;;;;;5024979;28;45558;-56
2022/09/20 05:00:53;;;;;;;;;5.00;4.00;;;;;;;;5015081;28;45477;-56
2022/09/20 05:03:22;;;;;;;;;6.33;5.67;;;;;;;;5019878;28;45365;-56
2022/09/20 05:06:13;;;;;;;;;4.67;4.67;;;;;;;;5017942;28;45339;-56
2022/09/20 05:08:56;;;;;;;;;4.00;3.00;;;;;;;;5017613;28;45384;-55
2022/09/20 05:11:31;;;;;;;;;5.33;3.33;;;;;;;;5010598;28;46199;-57
2022/09/20 05:14:05;;;;;;;;;7.00;5.33;;;;;;;;5015923;28;45652;-54
2022/09/20 05:16:45;;;;;;;;;6.33;4.33;;;;;;;;5018258;28;45247;-55
2022/09/20 05:19:29;;;;;;;;;5.00;4.00;;;;;;;;5009028;28;45481;-56
2022/09/20 05:22:00;;;;;;;;;8.67;4.00;;;;;;;;5002067;28;46138;-56
2022/09/20 05:24:45;;;;;;;;;5.67;4.67;;;;;;;;5000125;28;45324;-55
2022/09/20 05:27:25;;;;;;;;;4.67;3.33;;;;;;;;5006682;28;45435;-56
2022/09/20 05:30:00;;;;;;;;;6.00;5.00;;;;;;;;5022398;28;45635;-55
2022/09/20 05:32:44;;;;;;;;;4.00;2.67;;;;;;;;5023352;28;46068;-56
2022/09/20 05:35:15;;;;;;;;;4.67;4.00;;;;;;;;5016277;28;45444;-53
2022/09/20 05:38:04;;;;;;;;;4.67;3.00;;;;;;;;5018087;28;45363;-56
2022/09/20 05:40:32;;;;;;;;;6.00;4.33;;;;;;;;5012838;28;45330;-56
2022/09/20 05:43:19;;;;;;;;;4.33;4.33;;;;;;;;5012769;28;45542;-54
2022/09/20 05:46:03;;;;;;;;;3.00;3.00;;;;;;;;5030931;28;45450;-56
2022/09/20 05:48:51;;;;;;;;;4.00;4.00;;;;;;;;5013782;28;45281;-55
2022/09/20 05:51:16;;;;;;;;;4.67;4.67;;;;;;;;5010463;28;45233;-55
2022/09/20 05:53:59;;;;;;;;;2.67;2.67;;;;;;;;5017453;28;45628;-53
2022/09/20 05:56:43;;;;;;;;;3.67;3.67;;;;;;;;5000734;28;45325;-54
2022/09/20 05:59:20;;;;;;;;;7.00;6.67;;;;;;;;5000649;28;45249;-55
2022/09/20 06:02:08;;;;;;;;;4.67;4.00;;;;;;;;5006359;28;45455;-53
2022/09/20 06:04:55;;;;;;;;;2.33;2.33;;;;;;;;5007489;28;45498;-54
2022/09/20 06:07:30;;;;;;;;;6.00;6.00;;;;;;;;5001390;28;45505;-57
2022/09/20 06:09:58;;;;;;;;;4.67;4.67;;;;;;;;5006202;28;45480;-57
2022/09/20 06:12:23;;;;;;;;;4.00;4.00;;;;;;;;5003840;28;45340;-53
2022/09/20 06:14:49;;;;;;;;;4.50;4.50;;;;;;;;5006719;28;46029;-54
2022/09/20 06:17:31;;;;;;;;;3.00;3.00;;;;;;;;5001741;28;45253;-55
2022/09/20 06:20:09;;;;;;;;;6.00;5.00;;;;;;;;5010148;28;45285;-56
2022/09/20 06:22:42;;;;;;;;;5.67;4.00;;;;;;;;5016550;28;45519;-56
2022/09/20 06:25:07;;;;;;;;;8.67;6.00;;;;;;;;5017227;28;46108;-55
2022/09/20 06:27:34;;;;;;;;;12.00;7.33;;;;;;;;5014326;28;45360;-56
2022/09/20 06:30:02;;;;;;;;;8.33;6.67;;;;;;;;5017983;28;45281;-56
2022/09/20 06:32:27;;;;;;;;;7.67;6.67;;;;;;;;5016143;28;45477;-56
2022/09/20 06:34:53;;;;;;;;;4.00;4.00;;;;;;;;5017224;28;46191;-56
2022/09/20 06:43:14;;;;;;;;;4.00;4.00;;;;;;;;5006940;28;45403;-55
2022/09/20 06:45:40;;;;;;;;;6.67;5.33;;;;;;;;5006395;28;45172;-56
2022/09/20 06:48:06;;;;;;;;;4.67;4.67;;;;;;;;5018746;28;45254;-55
2022/09/20 06:50:33;;;;;;;;;7.67;5.67;;;;;;;;5015292;28;45323;-56
2022/09/20 06:52:58;;;;;;;;;5.33;5.00;;;;;;;;5017031;28;45502;-56
2022/09/20 06:55:28;;;;;;;;;7.33;6.00;;;;;;;;5005918;28;46143;-55
2022/09/20 06:57:53;;;;;;;;;6.00;4.00;;;;;;;;5018442;28;45182;-56
2022/09/20 07:00:18;;;;;;;;;3.00;3.00;;;;;;;;5015998;28;45319;-54
2022/09/20 07:02:44;;;;;;;;;3.67;3.67;;;;;;;;5018797;28;45277;-53
2022/09/20 07:05:13;;;;;;;;;6.00;6.00;;;;;;;;5009435;28;45506;-56
2022/09/20 07:07:38;;;;;;;;;7.00;5.00;;;;;;;;5016223;28;45355;-54
2022/09/20 07:10:03;;;;;;;;;5.00;5.00;;;;;;;;5008850;28;45766;-54
2022/09/20 07:12:32;;;;;;;;;6.33;5.33;;;;;;;;5011601;28;46798;-56
2022/09/20 07:14:57;;;;;;;;;5.67;4.00;;;;;;;;5002545;28;46069;-55
2022/09/20 07:17:22;;;;;;;;;4.67;4.67;;;;;;;;5011663;28;45414;-55
2022/09/20 07:19:48;;;;;;;;;4.67;3.00;;;;;;;;5005253;28;45394;-54
2022/09/20 07:22:13;;;;;;;;;9.00;6.00;;;;;;;;5009557;28;45265;-56
2022/09/20 07:24:40;;;;;;;;;7.00;4.00;;;;;;;;5005342;28;45498;-55
2022/09/20 07:27:06;;;;;;;;;9.00;4.67;;;;;;;;5009416;28;45363;-56
2022/09/20 07:29:33;;;;;;;;;5.00;5.00;;;;;;;;5009235;28;46116;-55
2022/09/20 07:31:59;;;;;;;;;7.33;4.67;;;;;;;;5012294;28;45500;-55
2022/09/20 07:34:24;;;;;;;;;6.00;5.33;;;;;;;;5014379;28;45411;-55
2022/09/20 07:36:50;;;;;;;;;7.67;6.00;;;;;;;;5018646;28;45301;-57
2022/09/20 07:39:15;;;;;;;;;6.33;5.00;;;;;;;;5015621;28;45665;-54
2022/09/20 07:41:41;;;;;;;;;6.00;6.00;;;;;;;;5018421;28;45621;-55
2022/09/20 07:44:26;;;;;;;;;6.67;5.00;;;;;;;;5007851;28;46159;-55
2022/09/20 07:46:52;;;;;;;;;6.00;6.00;;;;;;;;5012603;28;45285;-56
2022/09/20 07:49:18;;;;;;;;;9.00;6.00;;;;;;;;5015982;28;45382;-54
2022/09/20 07:51:43;;;;;;;;;6.00;5.33;;;;;;;;5007835;28;45534;-55
2022/09/20 07:54:09;;;;;;;;;4.33;4.33;;;;;;;;5011880;28;46280;-53
2022/09/20 07:56:34;;;;;;;;;8.00;6.00;;;;;;;;5016643;28;45422;-54
2022/09/20 07:58:59;;;;;;;;;7.33;5.00;;;;;;;;5015191;28;45194;-56
2022/09/20 08:01:24;;;;;;;;;8.00;7.00;;;;;;;;5007863;28;45458;-56
2022/09/20 08:03:50;;;;;;;;;7.00;7.00;;;;;;;;5011933;28;47027;-56
2022/09/20 08:06:17;;;;;;;;;5.33;5.33;;;;;;;;5011115;28;45414;-55
2022/09/20 08:08:43;;;;;;;;;17.33;17.33;;;;;;;;5012839;28;45530;-54
2022/09/20 08:11:09;;;;;;;;;14.00;12.67;;;;;;;;5008321;28;45481;-58
2022/09/20 08:13:43;;;;;;;;;8.00;7.00;;;;;;;;5019793;28;45355;-56
2022/09/20 08:16:09;;;;;;;;;10.67;7.00;;;;;;;;5013322;28;45609;-57
2022/09/20 08:18:35;;;;;;;;;8.00;6.00;;;;;;;;5014373;28;45434;-56
2022/09/20 08:21:05;;;;;;;;;7.00;7.00;;;;;;;;5007031;28;45470;-53
2022/09/20 08:23:30;;;;;;;;;8.00;7.33;;;;;;;;5009643;28;46490;-53
2022/09/20 08:25:56;;;;;;;;;7.33;6.00;;;;;;;;5012969;28;46011;-56
2022/09/20 08:28:21;;;;;;;;;5.00;4.00;;;;;;;;5017541;28;45754;-56
2022/09/20 08:30:46;;;;;;;;;9.00;8.00;;;;;;;;5016921;28;45646;-55
2022/09/20 08:33:11;;;;;;;;;7.00;6.33;;;;;;;;5017297;28;45759;-55
2022/09/20 08:35:37;;;;;;;;;10.67;7.67;;;;;;;;5014808;28;45455;-54
2022/09/20 08:38:02;;;;;;;;;12.67;11.33;;;;;;;;5018686;28;45458;-56
2022/09/20 08:40:28;;;;;;;;;9.67;7.00;;;;;;;;5013011;28;45512;-56
2022/09/20 08:42:54;;;;;;;;;10.33;9.00;;;;;;;;5016322;28;46076;-55
2022/09/20 08:45:21;;;;;;;;;12.00;9.00;;;;;;;;5007651;28;45514;-53
2022/09/20 08:47:52;;;;;;;;;10.00;10.00;;;;;;;;5015998;28;45328;-55
2022/09/20 08:50:17;;;;;;;;;8.00;7.00;;;;;;;;5013939;28;45522;-56
2022/09/20 08:52:45;;;;;;;;;12.67;11.00;;;;;;;;5016633;28;46020;-54
2022/09/20 08:55:15;;;;;;;;;11.33;9.33;;;;;;;;5014697;28;45673;-55
2022/09/20 08:57:40;;;;;;;;;9.00;8.00;;;;;;;;5013610;28;45567;-55
2022/09/20 09:00:06;;;;;;;;;8.33;8.00;;;;;;;;5015076;28;45357;-56
2022/09/20 09:02:33;;;;;;;;;14.67;10.00;;;;;;;;5009250;28;46296;-52
2022/09/20 09:04:58;;;;;;;;;9.00;8.00;;;;;;;;5010095;28;45368;-53
2022/09/20 09:07:24;;;;;;;;;9.00;7.33;;;;;;;;5009363;28;45356;-55
2022/09/20 09:09:51;;;;;;;;;13.67;11.67;;;;;;;;5015051;28;45776;-55
2022/09/20 09:12:19;;;;;;;;;14.67;12.33;;;;;;;;5015518;28;46930;-56
2022/09/20 09:14:48;;;;;;;;;13.00;11.33;;;;;;;;5011605;28;45453;-56
2022/09/20 09:17:24;;;;;;;;;10.00;9.00;;;;;;;;5015921;28;45450;-56
2022/09/20 09:19:52;;;;;;;;;7.67;6.67;;;;;;;;5018689;28;45507;-55
2022/09/20 09:22:23;;;;;;;;;7.67;7.33;;;;;;;;5018947;28;46252;-56
2022/09/20 09:25:07;;;;;;;;;10.67;9.33;;;;;;;;5016804;28;46578;-55
2022/09/20 09:27:34;;;;;;;;;8.67;8.67;;;;;;;;5014811;28;45792;-56
2022/09/20 09:29:59;;;;;;;;;10.33;7.00;;;;;;;;5015185;28;45597;-54
2022/09/20 09:32:27;;;;;;;;;8.00;8.00;;;;;;;;5015687;28;46127;-53
2022/09/20 09:34:53;;;;;;;;;9.67;9.33;;;;;;;;5016623;28;46059;-57
2022/09/20 09:37:29;;;;;;;;;8.67;8.67;;;;;;;;5012901;28;45359;-56
2022/09/20 09:40:06;;;;;;;;;8.33;8.00;;;;;;;;5016964;28;45470;-54
2022/09/20 09:42:32;;;;;;;;;9.33;8.00;;;;;;;;5003215;28;46155;-56
2022/09/20 09:45:22;;;;;;;;;9.67;8.67;;;;;;;;5004911;28;45347;-54
2022/09/20 09:47:48;;;;;;;;;10.33;10.33;;;;;;;;5009261;28;45289;-55
2022/09/20 09:50:20;;;;;;;;;11.33;8.33;;;;;;;;5008402;28;46958;-55
2022/09/20 09:53:21;;;;;;;;;12.67;8.67;;;;;;;;5016632;28;45509;-56
2022/09/20 09:55:59;;;;;;;;;10.33;10.33;;;;;;;;4992135;28;45472;-52
2022/09/20 09:58:27;;;;;;;;;7.67;7.67;;;;;;;;5011326;28;45425;-55
2022/09/20 10:00:53;;;;;;;;;8.67;6.67;;;;;;;;5010024;28;45412;-56
2022/09/20 10:03:18;;;;;;;;;7.33;7.00;;;;;;;;5015423;28;45489;-55
2022/09/20 10:05:55;;;;;;;;;5.67;4.67;;;;;;;;5013972;28;45386;-56
2022/09/20 10:08:56;;;;;;;;;8.67;6.00;;;;;;;;5016312;28;45483;-55
2022/09/20 10:11:33;;;;;;;;;9.00;7.33;;;;;;;;4974619;28;45523;-53
2022/09/20 10:14:02;;;;;;;;;5.00;4.00;;;;;;;;5000743;28;45619;-55
2022/09/20 10:16:35;;;;;;;;;5.00;5.00;;;;;;;;5014403;28;47082;-56
2022/09/20 10:19:09;;;;;;;;;6.00;5.67;;;;;;;;5013217;28;45518;-54
2022/09/20 10:21:47;;;;;;;;;9.00;6.00;;;;;;;;5005347;28;45495;-55
2022/09/20 10:24:12;;;;;;;;;9.00;5.67;;;;;;;;5011853;28;46352;-56
2022/09/20 10:26:51;;;;;;;;;8.00;6.00;;;;;;;;5014378;28;45514;-56
2022/09/20 10:29:36;;;;;;;;;8.00;6.33;;;;;;;;5012282;28;45485;-56
2022/09/20 10:32:07;;;;;;;;;8.00;5.33;;;;;;;;5015951;28;45470;-57
2022/09/20 10:34:48;;;;;;;;;5.67;5.67;;;;;;;;5000813;28;46815;-57
2022/09/20 10:37:27;;;;;;;;;5.67;5.67;;;;;;;;5014809;28;45574;-56
2022/09/20 10:40:04;;;;;;;;;8.00;7.00;;;;;;;;5005269;28;45481;-57
2022/09/20 10:45:28;;;;;;;;;6.33;5.00;;;;;;;;5013752;28;45429;-54
2022/09/20 10:48:07;;;;;;;;;7.00;6.00;;;;;;;;5016497;28;45471;-56
2022/09/20 10:50:51;;;;;;;;;6.33;4.67;;;;;;;;5011267;28;45563;-53
2022/09/20 10:53:19;;;;;;;;;8.67;5.67;;;;;;;;5010527;28;45937;-57
2022/09/20 10:55:59;;;;;;;;;6.33;5.33;;;;;;;;5010232;28;45522;-55
2022/09/20 10:58:37;;;;;;;;;7.00;5.67;;;;;;;;5014292;28;45418;-53
2022/09/20 11:01:02;;;;;;;;;6.33;6.00;;;;;;;;5017059;28;46871;-55
2022/09/20 11:03:46;;;;;;;;;4.00;4.00;;;;;;;;5014594;28;45356;-54
2022/09/20 11:06:14;;;;;;;;;5.33;5.33;;;;;;;;5014157;28;46074;-55
2022/09/20 11:08:41;;;;;;;;;6.00;5.00;;;;;;;;5016382;28;45454;-56
2022/09/20 11:11:21;;;;;;;;;6.00;5.67;;;;;;;;5017962;28;45470;-57
2022/09/20 11:13:46;;;;;;;;;8.00;5.00;;;;;;;;5017483;28;45463;-56
2022/09/20 11:16:16;;;;;;;;;5.00;5.00;;;;;;;;5017539;28;46246;-57
2022/09/20 11:18:53;;;;;;;;;6.67;5.00;;;;;;;;5016928;28;45423;-55
2022/09/20 11:21:18;;;;;;;;;8.67;7.00;;;;;;;;5017541;28;45423;-55
2022/09/20 11:23:51;;;;;;;;;9.33;8.00;;;;;;;;5021146;28;45278;-55
2022/09/20 11:26:21;;;;;;;;;7.00;6.33;;;;;;;;5017071;28;46137;-55
2022/09/20 11:28:49;;;;;;;;;3.33;3.00;;;;;;;;5017958;28;45621;-56
2022/09/20 11:31:14;;;;;;;;;4.00;4.00;;;;;;;;5017280;28;45536;-56
2022/09/20 11:33:40;;;;;;;;;3.33;3.00;;;;;;;;5010920;28;45609;-57
2022/09/20 11:36:09;;;;;;;;;5.67;4.00;;;;;;;;5017863;28;47084;-58
2022/09/20 11:38:35;;;;;;;;;1.67;1.67;;;;;;;;5013043;28;45337;-56
2022/09/20 11:41:08;;;;;;;;;6.67;6.33;;;;;;;;5008799;28;45394;-57
2022/09/20 11:43:34;;;;;;;;;3.00;3.00;;;;;;;;5016719;28;45542;-57
2022/09/20 11:46:04;;;;;;;;;0.25;0.25;;;;;;;;5013977;28;47182;-55
2022/09/20 11:48:34;;;;;;;;;4.67;4.67;;;;;;;;5016056;28;45367;-56
2022/09/20 11:51:02;;;;;;;;;4.33;3.33;;;;;;;;5009882;28;45795;-55
2022/09/20 11:53:36;;;;;;;;;3.00;1.33;;;;;;;;5019026;28;45499;-54
2022/09/20 11:56:20;;;;;;;;;2.00;0.67;;;;;;;;5011414;28;45691;-57
2022/09/20 11:58:47;;;;;;;;;7.33;7.33;;;;;;;;5013248;28;45329;-55
2022/09/20 12:01:14;;;;;;;;;4.00;2.33;;;;;;;;5016023;28;45570;-56
2022/09/20 12:03:40;;;;;;;;;2.00;1.00;;;;;;;;5017158;28;45376;-56
2022/09/20 12:06:06;;;;;;;;;5.00;4.00;;;;;;;;5014808;28;45493;-56
2022/09/20 12:08:32;;;;;;;;;3.00;3.00;;;;;;;;5016121;28;45301;-57
2022/09/20 12:11:02;;;;;;;;;2.50;1.25;;;;;;;;5013799;28;45355;-56
2022/09/20 12:13:28;;;;;;;;;2.00;2.00;;;;;;;;5013251;28;45454;-56
2022/09/20 12:15:58;;;;;;;;;3.67;1.67;;;;;;;;5013005;28;46282;-56
2022/09/20 12:18:27;;;;;;;;;1.33;1.33;;;;;;;;5019856;28;45368;-55
2022/09/20 12:20:56;;;;;;;;;1.75;1.75;;;;;;;;5017657;28;45375;-55
2022/09/20 12:23:39;;;;;;;;;1.00;1.00;;;;;;;;5017342;28;45422;-57
2022/09/20 12:26:09;;;;;;;;;1.75;1.00;;;;;;;;5010249;28;47212;-56
2022/09/20 12:28:36;;;;;;;;;2.00;1.00;;;;;;;;5018142;28;45347;-57
2022/09/20 12:31:20;;;;;;;;;0.00;0.00;;;;;;;;5015749;28;45407;-56
2022/09/20 12:34:02;;;;;;;;;2.00;1.33;;;;;;;;5014176;28;45632;-56
2022/09/20 12:36:35;;;;;;;;;0.25;0.25;;;;;;;;5017563;28;46569;-57
2022/09/20 12:39:12;;;;;;;;;3.67;1.33;;;;;;;;5017308;28;45359;-56
2022/09/20 12:41:55;;;;;;;;;1.00;1.00;;;;;;;;5013942;28;45629;-56
2022/09/20 12:44:36;;;;;;;;;2.00;0.75;;;;;;;;5008320;28;46220;-56
2022/09/20 12:47:01;;;;;;;;;2.00;0.00;;;;;;;;5014980;28;46900;-55
2022/09/20 12:55:32;;;;;;;;;1.33;1.33;;;;;;;;5005715;28;45446;-56
2022/09/20 12:58:16;;;;;;;;;2.33;2.33;;;;;;;;5011426;28;46099;-56
2022/09/20 13:00:46;;;;;;;;;1.33;1.33;;;;;;;;5011894;28;45502;-56
2022/09/20 13:03:19;;;;;;;;;3.67;2.33;;;;;;;;5016057;28;45462;-56
2022/09/20 13:05:46;;;;;;;;;2.67;2.00;;;;;;;;5016545;28;45470;-55
2022/09/20 13:08:12;;;;;;;;;3.33;3.00;;;;;;;;5009111;28;46188;-56
2022/09/20 13:10:39;;;;;;;;;4.67;4.00;;;;;;;;5011929;28;45818;-57
2022/09/20 13:13:12;;;;;;;;;4.00;2.00;;;;;;;;5013817;28;45463;-57
2022/09/20 13:15:39;;;;;;;;;2.00;2.00;;;;;;;;5015085;28;45311;-56
2022/09/20 13:18:05;;;;;;;;;2.67;2.00;;;;;;;;5009386;28;46291;-56
2022/09/20 13:20:33;;;;;;;;;5.33;2.00;;;;;;;;5014533;28;45488;-57
2022/09/20 13:22:59;;;;;;;;;4.00;4.00;;;;;;;;5011679;28;45434;-56
2022/09/20 13:25:24;;;;;;;;;2.67;1.67;;;;;;;;5017801;28;46985;-56
2022/09/20 13:28:08;;;;;;;;;2.00;2.00;;;;;;;;5011916;28;46259;-56
2022/09/20 13:30:34;;;;;;;;;2.00;1.33;;;;;;;;5013734;28;45497;-56
2022/09/20 13:33:34;;;;;;;;;1.50;1.50;;;;;;;;5010416;28;45748;-56
2022/09/20 13:36:00;;;;;;;;;1.67;1.67;;;;;;;;4999271;28;45442;-56
2022/09/20 13:38:28;;;;;;;;;7.00;5.67;;;;;;;;5008796;28;46346;-56
2022/09/20 13:40:59;;;;;;;;;3.33;2.00;;;;;;;;5013487;28;45398;-57
2022/09/20 13:43:48;;;;;;;;;3.00;1.33;;;;;;;;5014040;28;45339;-55
2022/09/20 13:46:17;;;;;;;;;3.00;2.67;;;;;;;;5015073;28;45587;-56
2022/09/20 13:48:46;;;;;;;;;0.00;0.00;;;;;;;;5008852;28;45435;-55
2022/09/20 13:51:18;;;;;;;;;4.33;3.67;;;;;;;;5002991;28;45500;-56
2022/09/20 13:53:45;;;;;;;;;1.67;1.67;;;;;;;;5004703;28;45485;-56
2022/09/20 13:56:31;;;;;;;;;4.00;2.00;;;;;;;;5009616;28;45699;-55
2022/09/20 13:59:03;;;;;;;;;3.00;1.00;;;;;;;;5012335;28;45449;-56
2022/09/20 14:01:29;;;;;;;;;1.00;1.00;;;;;;;;5017760;28;45418;-56
2022/09/20 14:04:05;;;;;;;;;4.00;2.33;;;;;;;;5015664;28;45535;-57
2022/09/20 14:06:31;;;;;;;;;2.00;2.00;;;;;;;;5016789;28;45427;-56
2022/09/20 14:08:57;;;;;;;;;4.00;2.00;;;;;;;;5018133;28;45493;-58
2022/09/20 14:11:23;;;;;;;;;3.00;3.00;;;;;;;;5019257;28;45320;-55
2022/09/20 14:13:53;;;;;;;;;4.50;4.50;;;;;;;;5017234;28;45304;-57
2022/09/20 14:16:20;;;;;;;;;4.00;2.33;;;;;;;;5009021;28;45498;-57
2022/09/20 14:18:46;;;;;;;;;3.00;2.00;;;;;;;;5016336;28;45444;-57
2022/09/20 14:21:12;;;;;;;;;4.00;2.00;;;;;;;;5012814;28;45458;-54
2022/09/20 14:23:57;;;;;;;;;3.00;3.00;;;;;;;;5011142;28;45431;-54
2022/09/20 14:26:22;;;;;;;;;3.00;3.00;;;;;;;;5017589;28;45543;-54
2022/09/20 14:28:47;;;;;;;;;2.00;2.00;;;;;;;;5018799;28;45929;-55
2022/09/20 14:31:15;;;;;;;;;4.00;2.00;;;;;;;;5011838;28;45727;-55
2022/09/20 14:33:42;;;;;;;;;2.67;2.67;;;;;;;;5019817;28;45634;-56
2022/09/20 14:36:15;;;;;;;;;2.00;2.00;;;;;;;;5014855;28;45553;-55
2022/09/20 14:38:44;;;;;;;;;0.33;0.33;;;;;;;;5015200;28;46015;-56
2022/09/20 14:41:10;;;;;;;;;2.00;2.00;;;;;;;;5014479;28;45386;-56
2022/09/20 14:43:35;;;;;;;;;1.33;1.33;;;;;;;;5015958;28;45766;-55
2022/09/20 14:46:03;;;;;;;;;1.67;0.67;;;;;;;;5014768;28;45725;-56
2022/09/20 14:48:30;;;;;;;;;1.33;1.33;;;;;;;;5015461;28;46412;-57
2022/09/20 14:51:14;;;;;;;;;3.00;2.00;;;;;;;;5014464;28;45383;-55
2022/09/20 14:53:39;;;;;;;;;3.33;2.00;;;;;;;;5011926;28;45652;-57
2022/09/20 14:56:04;;;;;;;;;1.33;1.33;;;;;;;;5010523;28;45369;-57
2022/09/20 14:58:30;;;;;;;;;2.67;2.00;;;;;;;;5001280;28;45919;-55
2022/09/20 15:01:00;;;;;;;;;1.50;1.50;;;;;;;;5012589;28;45451;-57
2022/09/20 15:03:28;;;;;;;;;2.00;2.00;;;;;;;;5014348;28;46732;-56
2022/09/20 15:05:53;;;;;;;;;3.00;3.00;;;;;;;;5010827;28;45593;-55
2022/09/20 15:08:19;;;;;;;;;2.00;2.00;;;;;;;;5011298;28;47076;-56
2022/09/20 15:10:44;;;;;;;;;2.33;2.33;;;;;;;;5014440;28;45351;-54
2022/09/20 15:13:10;;;;;;;;;1.00;1.00;;;;;;;;5005168;28;45351;-55
2022/09/20 15:15:36;;;;;;;;;1.00;1.00;;;;;;;;5004346;28;45571;-57
2022/09/20 15:18:01;;;;;;;;;1.00;1.00;;;;;;;;5015133;28;45204;-56
2022/09/20 15:20:27;;;;;;;;;1.00;1.00;;;;;;;;5006482;28;45415;-57
2022/09/20 15:22:52;;;;;;;;;1.00;1.00;;;;;;;;5015401;28;45818;-57
2022/09/20 15:25:19;;;;;;;;;0.33;0.33;;;;;;;;5008134;28;45397;-55
2022/09/20 15:27:45;;;;;;;;;2.00;2.00;;;;;;;;5008451;28;46210;-56
2022/09/20 15:30:11;;;;;;;;;0.00;0.00;;;;;;;;5006644;28;45474;-57
2022/09/20 15:32:37;;;;;;;;;1.33;1.33;;;;;;;;5013238;28;45399;-58
2022/09/20 15:35:02;;;;;;;;;1.75;1.75;;;;;;;;5010887;28;46763;-55
2022/09/20 15:37:27;;;;;;;;;3.00;1.67;;;;;;;;5011949;28;46909;-56
2022/09/20 15:39:53;;;;;;;;;1.00;1.00;;;;;;;;5015614;28;45418;-55
2022/09/20 15:42:20;;;;;;;;;3.33;2.33;;;;;;;;5016012;28;45532;-57
2022/09/20 15:44:47;;;;;;;;;2.00;2.00;;;;;;;;5015677;28;45430;-57
2022/09/20 15:47:12;;;;;;;;;1.00;1.00;;;;;;;;5011601;28;45435;-57
2022/09/20 15:49:37;;;;;;;;;6.67;3.00;;;;;;;;5012861;28;45634;-57
2022/09/20 15:52:02;;;;;;;;;1.00;1.00;;;;;;;;5013292;28;45396;-56
2022/09/20 15:54:28;;;;;;;;;3.00;1.00;;;;;;;;5012900;28;45399;-57
2022/09/20 15:56:53;;;;;;;;;0.25;0.00;;;;;;;;5014331;28;46091;-57
2022/09/20 15:59:22;;;;;;;;;2.67;2.00;;;;;;;;5013440;28;45413;-57
2022/09/20 16:01:47;;;;;;;;;1.00;1.00;;;;;;;;5013667;28;45810;-56
2022/09/20 16:04:13;;;;;;;;;2.67;1.67;;;;;;;;5015171;28;45578;-56
2022/09/20 16:06:40;;;;;;;;;1.00;1.00;;;;;;;;5018086;28;46264;-55
2022/09/20 16:09:06;;;;;;;;;2.67;2.00;;;;;;;;5021425;28;45396;-56
2022/09/20 16:11:31;;;;;;;;;2.00;2.00;;;;;;;;5016298;28;45544;-55
2022/09/20 16:13:57;;;;;;;;;3.00;2.00;;;;;;;;5016171;28;45459;-56
2022/09/20 16:16:23;;;;;;;;;0.00;0.00;;;;;;;;5011711;28;46638;-56
2022/09/20 16:21:33;;;;;;;;;4.00;1.00;;;;;;;;5014607;28;45620;-55
2022/09/20 16:23:58;;;;;;;;;2.00;2.00;;;;;;;;5012188;28;45509;-55
2022/09/20 16:26:24;;;;;;;;;2.33;2.00;;;;;;;;5018422;28;46317;-55
2022/09/20 16:28:50;;;;;;;;;1.00;1.00;;;;;;;;5013786;28;45402;-55
2022/09/20 16:31:27;;;;;;;;;5.00;2.00;;;;;;;;5017250;28;45624;-56
2022/09/20 16:33:52;;;;;;;;;4.33;3.67;;;;;;;;5014219;28;45602;-56
2022/09/20 16:36:18;;;;;;;;;2.00;2.00;;;;;;;;5021437;28;46235;-57
2022/09/20 16:38:43;;;;;;;;;1.67;1.67;;;;;;;;5016314;28;45535;-57
2022/09/20 16:41:09;;;;;;;;;1.00;1.00;;;;;;;;5017819;28;45560;-56
2022/09/20 16:43:35;;;;;;;;;1.00;1.00;;;;;;;;5020898;28;45639;-56
2022/09/20 16:46:00;;;;;;;;;2.00;2.00;;;;;;;;5019679;28;45435;-55
2022/09/20 16:48:30;;;;;;;;;2.33;2.00;;;;;;;;5022641;28;45762;-55
2022/09/20 16:50:55;;;;;;;;;3.00;3.00;;;;;;;;5017854;28;45475;-56
2022/09/20 16:53:20;;;;;;;;;4.00;3.00;;;;;;;;5013944;28;45580;-56
2022/09/20 16:55:46;;;;;;;;;2.67;2.67;;;;;;;;5008953;28;45419;-56
2022/09/20 16:58:11;;;;;;;;;4.33;3.00;;;;;;;;5005839;28;45462;-55
2022/09/20 17:00:36;;;;;;;;;3.67;1.33;;;;;;;;5013057;28;45866;-55
2022/09/20 17:03:01;;;;;;;;;2.00;2.00;;;;;;;;5014037;28;45386;-55
2022/09/20 17:05:26;;;;;;;;;3.00;2.00;;;;;;;;5011837;28;45567;-56
2022/09/20 17:07:53;;;;;;;;;4.00;2.33;;;;;;;;5013526;28;45442;-55
2022/09/20 17:10:18;;;;;;;;;6.00;4.00;;;;;;;;5019088;28;46093;-55
2022/09/20 17:12:46;;;;;;;;;1.33;1.33;;;;;;;;5024580;28;45427;-55
2022/09/20 17:15:12;;;;;;;;;2.00;2.00;;;;;;;;5017306;28;46977;-55
2022/09/20 17:17:38;;;;;;;;;3.33;3.00;;;;;;;;5013536;28;45636;-56
2022/09/20 17:20:04;;;;;;;;;3.67;3.00;;;;;;;;5017996;28;45505;-57
2022/09/20 17:22:30;;;;;;;;;3.00;3.00;;;;;;;;5007261;28;45366;-57
2022/09/20 17:24:55;;;;;;;;;3.33;3.33;;;;;;;;5018235;28;45969;-56
2022/09/20 17:27:20;;;;;;;;;2.00;2.00;;;;;;;;5002765;28;45313;-56
2022/09/20 17:29:46;;;;;;;;;3.00;3.00;;;;;;;;5016182;28;45617;-55
2022/09/20 17:32:11;;;;;;;;;5.00;3.00;;;;;;;;5016071;28;45350;-56
2022/09/20 17:34:36;;;;;;;;;1.00;1.00;;;;;;;;5009882;28;45511;-55
2022/09/20 17:37:02;;;;;;;;;2.67;2.67;;;;;;;;5015681;28;45486;-55
2022/09/20 17:39:27;;;;;;;;;4.00;3.00;;;;;;;;5007751;28;45292;-54
2022/09/20 17:41:52;;;;;;;;;3.00;3.00;;;;;;;;5013649;28;45597;-53
2022/09/20 17:44:17;;;;;;;;;5.00;5.00;;;;;;;;5009835;28;46550;-55
2022/09/20 17:46:44;;;;;;;;;6.00;4.00;;;;;;;;5012852;28;45433;-56
2022/09/20 17:49:11;;;;;;;;;4.00;2.33;;;;;;;;5005973;28;45590;-53
2022/09/20 17:51:37;;;;;;;;;4.00;4.00;;;;;;;;5010648;28;45311;-57
2022/09/20 17:54:02;;;;;;;;;4.00;4.00;;;;;;;;5007421;28;46185;-52
2022/09/20 17:56:29;;;;;;;;;4.00;3.00;;;;;;;;5009596;28;45613;-51
2022/09/20 17:58:55;;;;;;;;;3.00;3.00;;;;;;;;5018774;28;45289;-56
2022/09/20 18:01:21;;;;;;;;;3.33;3.33;;;;;;;;5012324;28;45718;-56
2022/09/20 18:03:47;;;;;;;;;7.00;4.00;;;;;;;;5011158;28;46860;-55
2022/09/20 18:06:12;;;;;;;;;4.00;3.00;;;;;;;;5008542;28;45371;-52
2022/09/20 18:08:37;;;;;;;;;4.00;4.00;;;;;;;;5006574;28;45634;-51
2022/09/20 18:11:03;;;;;;;;;3.00;3.00;;;;;;;;5006636;28;45506;-55
2022/09/20 18:13:29;;;;;;;;;6.67;6.67;;;;;;;;5013442;28;46133;-55
2022/09/20 18:15:54;;;;;;;;;5.00;4.00;;;;;;;;5011491;28;45250;-57
2022/09/20 18:18:20;;;;;;;;;9.00;6.33;;;;;;;;5009526;28;47040;-56
2022/09/20 18:20:45;;;;;;;;;6.67;5.00;;;;;;;;5018224;28;45542;-57
2022/09/20 18:23:10;;;;;;;;;8.00;5.00;;;;;;;;5012957;28;45383;-54
2022/09/20 18:26:20;;;;;;;;;4.67;4.67;;;;;;;;5014095;28;45415;-53
2022/09/20 18:28:21;;;;;;;;;6.00;4.33;;;;;;;;5026692;28;45499;-56
2022/09/20 18:30:47;;;;;;;;;4.67;4.67;;;;;;;;5015433;28;45509;-55
2022/09/20 18:33:14;;;;;;;;;4.00;4.00;;;;;;;;5014900;28;47026;-56
2022/09/20 18:35:41;;;;;;;;;5.33;5.00;;;;;;;;5016388;28;45475;-56
2022/09/20 18:38:10;;;;;;;;;7.33;5.00;;;;;;;;5017755;28;45245;-57
2022/09/20 18:40:37;;;;;;;;;4.67;4.33;;;;;;;;5011851;28;45591;-56
2022/09/20 18:43:02;;;;;;;;;5.00;5.00;;;;;;;;5011216;28;45429;-56
2022/09/20 18:45:27;;;;;;;;;5.33;5.33;;;;;;;;5010148;28;45574;-56
2022/09/20 18:47:56;;;;;;;;;4.00;4.00;;;;;;;;5014910;28;45397;-54
2022/09/20 18:50:23;;;;;;;;;4.00;4.00;;;;;;;;5017235;28;45580;-54
2022/09/20 18:52:50;;;;;;;;;4.33;4.33;;;;;;;;5011942;28;46337;-56
2022/09/20 18:55:15;;;;;;;;;4.67;3.67;;;;;;;;5006389;28;45542;-54
2022/09/20 18:57:40;;;;;;;;;4.67;4.33;;;;;;;;5015791;28;45513;-55
2022/09/20 19:00:06;;;;;;;;;3.00;3.00;;;;;;;;5011021;28;45417;-55
2022/09/20 19:02:47;;;;;;;;;6.33;6.00;;;;;;;;5014146;28;45672;-55
2022/09/20 19:05:18;;;;;;;;;5.67;5.67;;;;;;;;5023272;28;45699;-57
2022/09/20 19:07:49;;;;;;;;;7.00;7.00;;;;;;;;5015850;28;45561;-57
2022/09/20 19:10:17;;;;;;;;;6.33;5.33;;;;;;;;5007370;28;45684;-55
2022/09/20 19:13:05;;;;;;;;;9.67;9.67;;;;;;;;5016963;28;46282;-57
2022/09/20 19:15:42;;;;;;;;;11.33;9.67;;;;;;;;5005294;28;45675;-55
2022/09/20 19:18:26;;;;;;;;;9.00;7.00;;;;;;;;5011966;28;45678;-53
2022/09/20 19:21:04;;;;;;;;;9.00;7.33;;;;;;;;5012479;28;45805;-56
2022/09/20 19:23:29;;;;;;;;;12.67;12.00;;;;;;;;5016079;28;45773;-56
2022/09/20 19:26:06;;;;;;;;;10.67;10.00;;;;;;;;5021056;28;45499;-53
2022/09/20 19:28:32;;;;;;;;;10.00;10.00;;;;;;;;5014087;28;45530;-55
2022/09/20 19:30:57;;;;;;;;;12.67;12.00;;;;;;;;5018287;28;45481;-54
2022/09/20 19:33:22;;;;;;;;;12.33;11.00;;;;;;;;5015570;28;46413;-54
2022/09/20 19:35:49;;;;;;;;;9.67;9.00;;;;;;;;5016781;28;45431;-51
2022/09/20 19:38:36;;;;;;;;;13.00;9.67;;;;;;;;5011850;28;45514;-54
2022/09/20 19:41:26;;;;;;;;;13.33;11.00;;;;;;;;5009744;28;45354;-55
2022/09/20 19:43:54;;;;;;;;;17.67;13.00;;;;;;;;5015249;28;46505;-53
2022/09/20 19:46:39;;;;;;;;;16.67;16.00;;;;;;;;5015392;28;45405;-55